sensor_id;sensor_type;location;lat;lon;timestamp;pressure;altitude;pressure_sealevel;temperature
69435;BMP180;56625;54.322;18.582;2023-08-08T00:00:14;99298.00;;;14.40
69435;BMP180;56625;54.322;18.582;2023-08-08T00:03:02;99296.20;;;14.48
69435;BMP180;56625;54.322;18.582;2023-08-08T00:05:30;99306.60;;;14.50
69435;BMP180;56625;54.322;18.582;2023-08-08T00:07:58;99300.60;;;14.50
69435;BMP180;56625;54.322;18.582;2023-08-08T00:10:26;99307.60;;;14.50
69435;BMP180;56625;54.322;18.582;2023-08-08T00:12:54;99306.20;;;14.50
69435;BMP180;56625;54.322;18.582;2023-08-08T00:15:22;99307.00;;;14.50
69435;BMP180;56625;54.322;18.582;2023-08-08T00:17:50;99301.40;;;14.50
69435;BMP180;56625;54.322;18.582;2023-08-08T00:20:18;99304.60;;;14.50
69435;BMP180;56625;54.322;18.582;2023-08-08T00:22:46;99303.20;;;14.56
69435;BMP180;56625;54.322;18.582;2023-08-08T00:25:14;99304.00;;;14.50
69435;BMP180;56625;54.322;18.582;2023-08-08T00:27:42;99306.00;;;14.60
69435;BMP180;56625;54.322;18.582;2023-08-08T00:30:12;99306.00;;;14.60
69435;BMP180;56625;54.322;18.582;2023-08-08T00:32:43;99308.40;;;14.60
69435;BMP180;56625;54.322;18.582;2023-08-08T00:35:11;99310.80;;;14.60
69435;BMP180;56625;54.322;18.582;2023-08-08T00:37:38;99301.20;;;14.60
69435;BMP180;56625;54.322;18.582;2023-08-08T00:40:07;99287.80;;;14.60
69435;BMP180;56625;54.322;18.582;2023-08-08T00:42:35;99316.00;;;14.60
69435;BMP180;56625;54.322;18.582;2023-08-08T00:45:04;99315.20;;;14.60
69435;BMP180;56625;54.322;18.582;2023-08-08T00:47:34;99319.80;;;14.60
69435;BMP180;56625;54.322;18.582;2023-08-08T00:50:03;99316.00;;;14.60
69435;BMP180;56625;54.322;18.582;2023-08-08T00:52:32;99317.40;;;14.60
69435;BMP180;56625;54.322;18.582;2023-08-08T00:55:00;99317.40;;;14.60
69435;BMP180;56625;54.322;18.582;2023-08-08T00:57:29;99315.20;;;14.60
69435;BMP180;56625;54.322;18.582;2023-08-08T00:59:57;99308.00;;;14.60
69435;BMP180;56625;54.322;18.582;2023-08-08T01:02:25;99303.60;;;14.60
69435;BMP180;56625;54.322;18.582;2023-08-08T01:04:53;99307.60;;;14.60
69435;BMP180;56625;54.322;18.582;2023-08-08T01:10:09;99311.40;;;14.52
69435;BMP180;56625;54.322;18.582;2023-08-08T01:13:00;99302.80;;;14.52
69435;BMP180;56625;54.322;18.582;2023-08-08T01:15:30;99310.80;;;14.50
69435;BMP180;56625;54.322;18.582;2023-08-08T01:18:09;99302.00;;;14.50
69435;BMP180;56625;54.322;18.582;2023-08-08T01:20:38;99300.20;;;14.50
69435;BMP180;56625;54.322;18.582;2023-08-08T01:23:18;99303.80;;;14.50
69435;BMP180;56625;54.322;18.582;2023-08-08T01:25:48;99299.80;;;14.50
69435;BMP180;56625;54.322;18.582;2023-08-08T01:28:21;99302.20;;;14.50
69435;BMP180;56625;54.322;18.582;2023-08-08T01:30:51;99299.80;;;14.50
69435;BMP180;56625;54.322;18.582;2023-08-08T01:33:19;99296.80;;;14.50
69435;BMP180;56625;54.322;18.582;2023-08-08T01:35:59;99288.40;;;14.44
69435;BMP180;56625;54.322;18.582;2023-08-08T01:38:41;99301.00;;;14.50
69435;BMP180;56625;54.322;18.582;2023-08-08T01:41:09;99294.60;;;14.40
69435;BMP180;56625;54.322;18.582;2023-08-08T01:43:38;99292.00;;;14.40
69435;BMP180;56625;54.322;18.582;2023-08-08T01:46:08;99298.40;;;14.40
69435;BMP180;56625;54.322;18.582;2023-08-08T01:48:36;99303.80;;;14.40
69435;BMP180;56625;54.322;18.582;2023-08-08T01:51:04;99291.00;;;14.38
69435;BMP180;56625;54.322;18.582;2023-08-08T01:53:32;99290.60;;;14.40
69435;BMP180;56625;54.322;18.582;2023-08-08T01:56:00;99297.60;;;14.30
69435;BMP180;56625;54.322;18.582;2023-08-08T01:58:28;99302.40;;;14.30
69435;BMP180;56625;54.322;18.582;2023-08-08T02:00:56;99306.20;;;14.30
69435;BMP180;56625;54.322;18.582;2023-08-08T02:03:24;99303.00;;;14.20
69435;BMP180;56625;54.322;18.582;2023-08-08T02:05:52;99302.00;;;14.20
69435;BMP180;56625;54.322;18.582;2023-08-08T02:08:20;99305.00;;;14.20
69435;BMP180;56625;54.322;18.582;2023-08-08T02:10:48;99311.60;;;14.20
69435;BMP180;56625;54.322;18.582;2023-08-08T02:13:16;99304.20;;;14.20
69435;BMP180;56625;54.322;18.582;2023-08-08T02:15:44;99312.60;;;14.20
69435;BMP180;56625;54.322;18.582;2023-08-08T02:18:12;99303.80;;;14.10
69435;BMP180;56625;54.322;18.582;2023-08-08T02:20:40;99320.20;;;14.10
69435;BMP180;56625;54.322;18.582;2023-08-08T02:23:08;99320.60;;;14.10
69435;BMP180;56625;54.322;18.582;2023-08-08T02:25:36;99317.20;;;14.10
69435;BMP180;56625;54.322;18.582;2023-08-08T02:28:04;99321.60;;;14.10
69435;BMP180;56625;54.322;18.582;2023-08-08T02:30:32;99318.40;;;14.00
69435;BMP180;56625;54.322;18.582;2023-08-08T02:33:00;99324.00;;;14.00
69435;BMP180;56625;54.322;18.582;2023-08-08T02:35:28;99326.60;;;14.00
69435;BMP180;56625;54.322;18.582;2023-08-08T02:37:57;99326.40;;;14.00
69435;BMP180;56625;54.322;18.582;2023-08-08T02:40:25;99328.60;;;14.00
69435;BMP180;56625;54.322;18.582;2023-08-08T02:42:54;99324.40;;;14.00
69435;BMP180;56625;54.322;18.582;2023-08-08T02:45:22;99331.40;;;14.00
69435;BMP180;56625;54.322;18.582;2023-08-08T02:47:50;99330.60;;;14.00
69435;BMP180;56625;54.322;18.582;2023-08-08T02:50:18;99337.00;;;14.00
69435;BMP180;56625;54.322;18.582;2023-08-08T02:52:47;99339.00;;;14.00
69435;BMP180;56625;54.322;18.582;2023-08-08T02:55:15;99337.00;;;14.00
69435;BMP180;56625;54.322;18.582;2023-08-08T02:57:43;99337.00;;;14.00
69435;BMP180;56625;54.322;18.582;2023-08-08T03:00:12;99341.40;;;14.00
69435;BMP180;56625;54.322;18.582;2023-08-08T03:02:40;99344.00;;;14.00
69435;BMP180;56625;54.322;18.582;2023-08-08T03:05:08;99346.60;;;14.00
69435;BMP180;56625;54.322;18.582;2023-08-08T03:07:36;99351.80;;;14.00
69435;BMP180;56625;54.322;18.582;2023-08-08T03:10:05;99358.60;;;14.00
69435;BMP180;56625;54.322;18.582;2023-08-08T03:12:34;99355.80;;;14.06
69435;BMP180;56625;54.322;18.582;2023-08-08T03:15:02;99351.80;;;14.10
69435;BMP180;56625;54.322;18.582;2023-08-08T03:17:30;99351.60;;;14.10
69435;BMP180;56625;54.322;18.582;2023-08-08T03:19:58;99353.80;;;14.10
69435;BMP180;56625;54.322;18.582;2023-08-08T03:22:27;99363.20;;;14.10
69435;BMP180;56625;54.322;18.582;2023-08-08T03:24:54;99366.60;;;14.10
69435;BMP180;56625;54.322;18.582;2023-08-08T03:27:22;99372.40;;;14.10
69435;BMP180;56625;54.322;18.582;2023-08-08T03:29:51;99368.60;;;14.12
69435;BMP180;56625;54.322;18.582;2023-08-08T03:32:19;99370.80;;;14.16
69435;BMP180;56625;54.322;18.582;2023-08-08T03:34:47;99378.20;;;14.18
69435;BMP180;56625;54.322;18.582;2023-08-08T03:37:15;99371.60;;;14.20
69435;BMP180;56625;54.322;18.582;2023-08-08T03:39:43;99375.00;;;14.20
69435;BMP180;56625;54.322;18.582;2023-08-08T03:42:11;99379.00;;;14.20
69435;BMP180;56625;54.322;18.582;2023-08-08T03:44:39;99375.60;;;14.20
69435;BMP180;56625;54.322;18.582;2023-08-08T03:47:07;99380.40;;;14.20
69435;BMP180;56625;54.322;18.582;2023-08-08T03:49:46;99392.60;;;14.20
69435;BMP180;56625;54.322;18.582;2023-08-08T03:52:14;99391.80;;;14.28
69435;BMP180;56625;54.322;18.582;2023-08-08T03:54:43;99395.40;;;14.26
69435;BMP180;56625;54.322;18.582;2023-08-08T03:57:11;99397.80;;;14.20
69435;BMP180;56625;54.322;18.582;2023-08-08T03:59:39;99397.60;;;14.22
69435;BMP180;56625;54.322;18.582;2023-08-08T04:02:07;99404.00;;;14.24
69435;BMP180;56625;54.322;18.582;2023-08-08T04:04:35;99402.00;;;14.30
69435;BMP180;56625;54.322;18.582;2023-08-08T04:07:03;99401.20;;;14.30
69435;BMP180;56625;54.322;18.582;2023-08-08T04:09:31;99404.20;;;14.30
69435;BMP180;56625;54.322;18.582;2023-08-08T04:11:59;99412.40;;;14.30
69435;BMP180;56625;54.322;18.582;2023-08-08T04:14:28;99418.40;;;14.30
69435;BMP180;56625;54.322;18.582;2023-08-08T04:16:56;99418.40;;;14.32
69435;BMP180;56625;54.322;18.582;2023-08-08T04:19:25;99429.00;;;14.34
69435;BMP180;56625;54.322;18.582;2023-08-08T04:21:53;99435.20;;;14.36
69435;BMP180;56625;54.322;18.582;2023-08-08T04:24:21;99436.60;;;14.38
69435;BMP180;56625;54.322;18.582;2023-08-08T04:26:49;99439.40;;;14.30
69435;BMP180;56625;54.322;18.582;2023-08-08T04:29:17;99444.20;;;14.30
69435;BMP180;56625;54.322;18.582;2023-08-08T04:31:45;99447.80;;;14.30
69435;BMP180;56625;54.322;18.582;2023-08-08T04:34:12;99453.80;;;14.30
69435;BMP180;56625;54.322;18.582;2023-08-08T04:36:40;99450.00;;;14.30
69435;BMP180;56625;54.322;18.582;2023-08-08T04:39:08;99459.20;;;14.30
69435;BMP180;56625;54.322;18.582;2023-08-08T04:41:36;99463.40;;;14.20
69435;BMP180;56625;54.322;18.582;2023-08-08T04:44:04;99467.40;;;14.20
69435;BMP180;56625;54.322;18.582;2023-08-08T04:46:32;99472.40;;;14.20
69435;BMP180;56625;54.322;18.582;2023-08-08T04:49:00;99468.40;;;14.22
69435;BMP180;56625;54.322;18.582;2023-08-08T04:51:28;99473.80;;;14.20
69435;BMP180;56625;54.322;18.582;2023-08-08T04:53:56;99472.60;;;14.30
69435;BMP180;56625;54.322;18.582;2023-08-08T04:56:23;99473.60;;;14.30
69435;BMP180;56625;54.322;18.582;2023-08-08T04:58:52;99469.40;;;14.36
69435;BMP180;56625;54.322;18.582;2023-08-08T05:01:20;99478.20;;;14.40
69435;BMP180;56625;54.322;18.582;2023-08-08T05:03:49;99485.20;;;14.42
69435;BMP180;56625;54.322;18.582;2023-08-08T05:06:20;99484.20;;;14.50
69435;BMP180;56625;54.322;18.582;2023-08-08T05:08:51;99495.80;;;14.50
69435;BMP180;56625;54.322;18.582;2023-08-08T05:11:19;99486.20;;;14.50
69435;BMP180;56625;54.322;18.582;2023-08-08T05:13:47;99484.60;;;14.50
69435;BMP180;56625;54.322;18.582;2023-08-08T05:16:15;99489.60;;;14.50
69435;BMP180;56625;54.322;18.582;2023-08-08T05:18:44;99491.20;;;14.58
69435;BMP180;56625;54.322;18.582;2023-08-08T05:21:13;99493.00;;;14.60
69435;BMP180;56625;54.322;18.582;2023-08-08T05:23:41;99494.20;;;14.60
69435;BMP180;56625;54.322;18.582;2023-08-08T05:26:09;99493.00;;;14.60
69435;BMP180;56625;54.322;18.582;2023-08-08T05:28:36;99492.40;;;14.70
69435;BMP180;56625;54.322;18.582;2023-08-08T05:31:04;99492.60;;;14.70
69435;BMP180;56625;54.322;18.582;2023-08-08T05:33:32;99503.60;;;14.80
69435;BMP180;56625;54.322;18.582;2023-08-08T05:36:00;99496.80;;;14.80
69435;BMP180;56625;54.322;18.582;2023-08-08T05:38:28;99501.40;;;14.80
69435;BMP180;56625;54.322;18.582;2023-08-08T05:40:56;99509.40;;;14.90
69435;BMP180;56625;54.322;18.582;2023-08-08T05:43:24;99516.20;;;14.94
69435;BMP180;56625;54.322;18.582;2023-08-08T05:45:54;99516.80;;;15.10
69435;BMP180;56625;54.322;18.582;2023-08-08T05:48:22;99514.20;;;15.20
69435;BMP180;56625;54.322;18.582;2023-08-08T05:50:50;99520.40;;;15.28
69435;BMP180;56625;54.322;18.582;2023-08-08T05:53:19;99526.80;;;15.22
69435;BMP180;56625;54.322;18.582;2023-08-08T05:55:47;99534.20;;;15.22
69435;BMP180;56625;54.322;18.582;2023-08-08T05:58:15;99533.20;;;15.20
69435;BMP180;56625;54.322;18.582;2023-08-08T06:00:42;99526.20;;;15.20
69435;BMP180;56625;54.322;18.582;2023-08-08T06:03:10;99538.00;;;15.20
69435;BMP180;56625;54.322;18.582;2023-08-08T06:05:39;99558.40;;;15.10
69435;BMP180;56625;54.322;18.582;2023-08-08T06:08:07;99548.40;;;15.10
69435;BMP180;56625;54.322;18.582;2023-08-08T06:10:39;99547.80;;;15.12
69435;BMP180;56625;54.322;18.582;2023-08-08T06:13:07;99547.60;;;15.20
69435;BMP180;56625;54.322;18.582;2023-08-08T06:15:35;99545.80;;;15.20
69435;BMP180;56625;54.322;18.582;2023-08-08T06:18:04;99549.20;;;15.20
69435;BMP180;56625;54.322;18.582;2023-08-08T06:20:32;99548.40;;;15.30
69435;BMP180;56625;54.322;18.582;2023-08-08T06:23:00;99545.60;;;15.30
69435;BMP180;56625;54.322;18.582;2023-08-08T06:25:28;99542.20;;;15.30
69435;BMP180;56625;54.322;18.582;2023-08-08T06:27:56;99546.20;;;15.30
69435;BMP180;56625;54.322;18.582;2023-08-08T06:30:25;99551.60;;;15.30
69435;BMP180;56625;54.322;18.582;2023-08-08T06:32:53;99553.00;;;15.48
69435;BMP180;56625;54.322;18.582;2023-08-08T06:35:21;99545.00;;;15.62
69435;BMP180;56625;54.322;18.582;2023-08-08T06:37:49;99556.20;;;15.70
69435;BMP180;56625;54.322;18.582;2023-08-08T06:40:17;99559.40;;;15.90
69435;BMP180;56625;54.322;18.582;2023-08-08T06:42:45;99547.00;;;16.10
69435;BMP180;56625;54.322;18.582;2023-08-08T06:45:13;99558.00;;;16.20
69435;BMP180;56625;54.322;18.582;2023-08-08T06:47:41;99553.20;;;16.28
69435;BMP180;56625;54.322;18.582;2023-08-08T06:50:09;99555.20;;;16.30
69435;BMP180;56625;54.322;18.582;2023-08-08T06:52:38;99566.80;;;16.20
69435;BMP180;56625;54.322;18.582;2023-08-08T06:55:06;99562.00;;;16.20
69435;BMP180;56625;54.322;18.582;2023-08-08T06:57:35;99568.80;;;16.20
69435;BMP180;56625;54.322;18.582;2023-08-08T07:00:03;99565.60;;;16.30
69435;BMP180;56625;54.322;18.582;2023-08-08T07:02:36;99576.60;;;16.30
69435;BMP180;56625;54.322;18.582;2023-08-08T07:05:04;99574.00;;;16.30
69435;BMP180;56625;54.322;18.582;2023-08-08T07:07:32;99573.00;;;16.30
69435;BMP180;56625;54.322;18.582;2023-08-08T07:10:01;99584.40;;;16.40
69435;BMP180;56625;54.322;18.582;2023-08-08T07:12:30;99583.00;;;16.48
69435;BMP180;56625;54.322;18.582;2023-08-08T07:15:00;99588.00;;;16.50
69435;BMP180;56625;54.322;18.582;2023-08-08T07:17:28;99591.40;;;16.50
69435;BMP180;56625;54.322;18.582;2023-08-08T07:19:56;99593.20;;;16.52
69435;BMP180;56625;54.322;18.582;2023-08-08T07:22:24;99597.80;;;16.48
69435;BMP180;56625;54.322;18.582;2023-08-08T07:24:52;99598.00;;;16.40
69435;BMP180;56625;54.322;18.582;2023-08-08T07:27:20;99598.00;;;16.50
69435;BMP180;56625;54.322;18.582;2023-08-08T07:29:48;99610.40;;;16.70
69435;BMP180;56625;54.322;18.582;2023-08-08T07:32:16;99603.00;;;16.80
69435;BMP180;56625;54.322;18.582;2023-08-08T07:34:45;99610.20;;;16.74
69435;BMP180;56625;54.322;18.582;2023-08-08T07:37:14;99617.40;;;16.70
69435;BMP180;56625;54.322;18.582;2023-08-08T07:39:42;99623.60;;;16.70
69435;BMP180;56625;54.322;18.582;2023-08-08T07:42:10;99633.20;;;16.60
69435;BMP180;56625;54.322;18.582;2023-08-08T07:44:37;99623.80;;;16.50
69435;BMP180;56625;54.322;18.582;2023-08-08T07:47:06;99631.80;;;16.50
69435;BMP180;56625;54.322;18.582;2023-08-08T07:49:37;99640.40;;;16.50
69435;BMP180;56625;54.322;18.582;2023-08-08T07:52:06;99649.60;;;16.38
69435;BMP180;56625;54.322;18.582;2023-08-08T07:54:35;99637.00;;;16.30
69435;BMP180;56625;54.322;18.582;2023-08-08T07:57:03;99636.60;;;16.40
69435;BMP180;56625;54.322;18.582;2023-08-08T07:59:32;99635.20;;;16.40
69435;BMP180;56625;54.322;18.582;2023-08-08T08:01:59;99631.00;;;16.48
69435;BMP180;56625;54.322;18.582;2023-08-08T08:04:28;99639.80;;;16.52
69435;BMP180;56625;54.322;18.582;2023-08-08T08:06:56;99651.80;;;16.76
69435;BMP180;56625;54.322;18.582;2023-08-08T08:09:24;99642.40;;;16.98
69435;BMP180;56625;54.322;18.582;2023-08-08T08:11:52;99646.00;;;17.18
69435;BMP180;56625;54.322;18.582;2023-08-08T08:14:21;99648.80;;;17.20
69435;BMP180;56625;54.322;18.582;2023-08-08T08:17:22;99663.80;;;17.20
69435;BMP180;56625;54.322;18.582;2023-08-08T08:19:51;99660.80;;;17.04
69435;BMP180;56625;54.322;18.582;2023-08-08T08:22:19;99656.60;;;16.82
69435;BMP180;56625;54.322;18.582;2023-08-08T08:24:47;99660.00;;;16.80
69435;BMP180;56625;54.322;18.582;2023-08-08T08:27:15;99669.60;;;16.70
69435;BMP180;56625;54.322;18.582;2023-08-08T08:29:43;99676.40;;;16.60
69435;BMP180;56625;54.322;18.582;2023-08-08T08:32:11;99664.40;;;16.70
69435;BMP180;56625;54.322;18.582;2023-08-08T08:34:39;99673.40;;;16.94
69435;BMP180;56625;54.322;18.582;2023-08-08T08:37:07;99681.00;;;17.10
69435;BMP180;56625;54.322;18.582;2023-08-08T08:39:35;99673.00;;;17.20
69435;BMP180;56625;54.322;18.582;2023-08-08T08:42:05;99667.00;;;17.42
69435;BMP180;56625;54.322;18.582;2023-08-08T08:44:35;99670.00;;;17.70
69435;BMP180;56625;54.322;18.582;2023-08-08T08:47:07;99679.60;;;17.80
69435;BMP180;56625;54.322;18.582;2023-08-08T08:49:42;99678.00;;;17.58
69435;BMP180;56625;54.322;18.582;2023-08-08T08:52:16;99686.60;;;17.50
69435;BMP180;56625;54.322;18.582;2023-08-08T08:54:44;99693.60;;;17.50
69435;BMP180;56625;54.322;18.582;2023-08-08T08:57:12;99692.40;;;17.30
69435;BMP180;56625;54.322;18.582;2023-08-08T08:59:40;99689.40;;;17.36
69435;BMP180;56625;54.322;18.582;2023-08-08T09:02:08;99687.40;;;17.40
69435;BMP180;56625;54.322;18.582;2023-08-08T09:04:38;99711.80;;;17.60
69435;BMP180;56625;54.322;18.582;2023-08-08T09:07:06;99699.00;;;17.76
69435;BMP180;56625;54.322;18.582;2023-08-08T09:09:35;99702.40;;;17.76
69435;BMP180;56625;54.322;18.582;2023-08-08T09:12:05;99691.60;;;17.94
69435;BMP180;56625;54.322;18.582;2023-08-08T09:14:33;99695.20;;;18.12
69435;BMP180;56625;54.322;18.582;2023-08-08T09:17:01;99702.40;;;18.30
69435;BMP180;56625;54.322;18.582;2023-08-08T09:19:30;99714.00;;;18.50
69435;BMP180;56625;54.322;18.582;2023-08-08T09:21:58;99708.80;;;18.36
69435;BMP180;56625;54.322;18.582;2023-08-08T09:24:26;99710.60;;;18.20
69435;BMP180;56625;54.322;18.582;2023-08-08T09:26:54;99718.20;;;18.10
69435;BMP180;56625;54.322;18.582;2023-08-08T09:29:23;99712.40;;;18.10
69435;BMP180;56625;54.322;18.582;2023-08-08T09:31:51;99725.80;;;18.04
69435;BMP180;56625;54.322;18.582;2023-08-08T09:34:25;99722.80;;;17.90
69435;BMP180;56625;54.322;18.582;2023-08-08T09:36:54;99730.40;;;17.80
69435;BMP180;56625;54.322;18.582;2023-08-08T09:39:22;99732.20;;;17.80
69435;BMP180;56625;54.322;18.582;2023-08-08T09:41:50;99729.00;;;17.92
69435;BMP180;56625;54.322;18.582;2023-08-08T09:44:23;99733.80;;;18.10
69435;BMP180;56625;54.322;18.582;2023-08-08T09:46:52;99734.40;;;18.10
69435;BMP180;56625;54.322;18.582;2023-08-08T09:49:22;99739.80;;;18.36
69435;BMP180;56625;54.322;18.582;2023-08-08T09:51:50;99739.40;;;18.50
69435;BMP180;56625;54.322;18.582;2023-08-08T09:54:20;99741.40;;;18.70
69435;BMP180;56625;54.322;18.582;2023-08-08T09:56:50;99744.60;;;18.70
69435;BMP180;56625;54.322;18.582;2023-08-08T09:59:19;99742.60;;;18.70
69435;BMP180;56625;54.322;18.582;2023-08-08T10:01:48;99747.60;;;18.80
69435;BMP180;56625;54.322;18.582;2023-08-08T10:04:16;99750.80;;;18.80
69435;BMP180;56625;54.322;18.582;2023-08-08T10:06:45;99734.20;;;19.00
69435;BMP180;56625;54.322;18.582;2023-08-08T10:09:13;99737.60;;;19.10
69435;BMP180;56625;54.322;18.582;2023-08-08T10:11:43;99740.20;;;19.20
69435;BMP180;56625;54.322;18.582;2023-08-08T10:14:12;99741.20;;;19.10
69435;BMP180;56625;54.322;18.582;2023-08-08T10:16:43;99747.80;;;19.10
69435;BMP180;56625;54.322;18.582;2023-08-08T10:19:22;99753.60;;;19.10
69435;BMP180;56625;54.322;18.582;2023-08-08T10:22:03;99760.00;;;19.06
69435;BMP180;56625;54.322;18.582;2023-08-08T10:24:34;99772.60;;;19.30
69435;BMP180;56625;54.322;18.582;2023-08-08T10:27:04;99773.20;;;19.40
69435;BMP180;56625;54.322;18.582;2023-08-08T10:29:33;99768.80;;;19.60
69435;BMP180;56625;54.322;18.582;2023-08-08T10:32:06;99764.40;;;19.68
69435;BMP180;56625;54.322;18.582;2023-08-08T10:34:43;99765.60;;;19.80
69435;BMP180;56625;54.322;18.582;2023-08-08T10:37:14;99762.80;;;19.90
69435;BMP180;56625;54.322;18.582;2023-08-08T10:39:54;99759.80;;;19.88
69435;BMP180;56625;54.322;18.582;2023-08-08T10:42:25;99760.00;;;19.70
69435;BMP180;56625;54.322;18.582;2023-08-08T10:45:02;99769.60;;;19.40
69435;BMP180;56625;54.322;18.582;2023-08-08T10:47:34;99771.80;;;19.10
69435;BMP180;56625;54.322;18.582;2023-08-08T10:50:05;99779.40;;;18.80
69435;BMP180;56625;54.322;18.582;2023-08-08T10:53:02;99776.80;;;18.96
69435;BMP180;56625;54.322;18.582;2023-08-08T10:55:35;99753.00;;;19.24
69435;BMP180;56625;54.322;18.582;2023-08-08T10:58:10;99756.20;;;19.52
69435;BMP180;56625;54.322;18.582;2023-08-08T11:00:41;99770.80;;;19.70
69435;BMP180;56625;54.322;18.582;2023-08-08T11:03:10;99769.60;;;19.70
69435;BMP180;56625;54.322;18.582;2023-08-08T11:05:38;99767.20;;;20.00
69435;BMP180;56625;54.322;18.582;2023-08-08T11:08:07;99773.80;;;20.20
69435;BMP180;56625;54.322;18.582;2023-08-08T11:10:38;99780.00;;;20.00
69435;BMP180;56625;54.322;18.582;2023-08-08T11:13:08;99785.20;;;19.82
69435;BMP180;56625;54.322;18.582;2023-08-08T11:15:36;99807.60;;;19.56
69435;BMP180;56625;54.322;18.582;2023-08-08T11:18:06;99818.40;;;19.20
69435;BMP180;56625;54.322;18.582;2023-08-08T11:20:36;99835.80;;;19.00
69435;BMP180;56625;54.322;18.582;2023-08-08T11:23:05;99858.60;;;18.80
69435;BMP180;56625;54.322;18.582;2023-08-08T11:25:41;99890.60;;;18.20
69435;BMP180;56625;54.322;18.582;2023-08-08T11:28:12;99900.40;;;17.64
69435;BMP180;56625;54.322;18.582;2023-08-08T11:30:44;99913.00;;;17.18
69435;BMP180;56625;54.322;18.582;2023-08-08T11:33:14;99911.80;;;16.90
69435;BMP180;56625;54.322;18.582;2023-08-08T11:35:45;99908.00;;;16.80
69435;BMP180;56625;54.322;18.582;2023-08-08T11:38:16;99904.40;;;16.70
69435;BMP180;56625;54.322;18.582;2023-08-08T11:40:45;99903.40;;;16.98
69435;BMP180;56625;54.322;18.582;2023-08-08T11:43:13;99896.00;;;17.30
69435;BMP180;56625;54.322;18.582;2023-08-08T11:45:42;99887.60;;;17.62
69435;BMP180;56625;54.322;18.582;2023-08-08T11:48:10;99900.00;;;17.90
69435;BMP180;56625;54.322;18.582;2023-08-08T11:50:38;99884.40;;;18.10
69435;BMP180;56625;54.322;18.582;2023-08-08T11:53:07;99883.20;;;18.40
69435;BMP180;56625;54.322;18.582;2023-08-08T11:55:36;99880.00;;;18.58
69435;BMP180;56625;54.322;18.582;2023-08-08T11:58:04;99881.60;;;18.80
69435;BMP180;56625;54.322;18.582;2023-08-08T12:00:33;99881.20;;;18.80
69435;BMP180;56625;54.322;18.582;2023-08-08T12:03:02;99880.40;;;18.70
69435;BMP180;56625;54.322;18.582;2023-08-08T12:05:38;99882.20;;;18.80
69435;BMP180;56625;54.322;18.582;2023-08-08T12:08:06;99880.20;;;18.90
69435;BMP180;56625;54.322;18.582;2023-08-08T12:10:34;99875.00;;;19.16
69435;BMP180;56625;54.322;18.582;2023-08-08T12:13:03;99879.80;;;19.40
69435;BMP180;56625;54.322;18.582;2023-08-08T12:15:33;99896.40;;;19.52
69435;BMP180;56625;54.322;18.582;2023-08-08T12:18:03;99882.00;;;19.64
69435;BMP180;56625;54.322;18.582;2023-08-08T12:20:31;99879.40;;;19.60
69435;BMP180;56625;54.322;18.582;2023-08-08T12:23:00;99876.40;;;19.60
69435;BMP180;56625;54.322;18.582;2023-08-08T12:25:27;99884.00;;;19.70
69435;BMP180;56625;54.322;18.582;2023-08-08T12:27:56;99879.00;;;19.80
69435;BMP180;56625;54.322;18.582;2023-08-08T12:30:24;99878.60;;;19.88
69435;BMP180;56625;54.322;18.582;2023-08-08T12:32:52;99889.20;;;19.86
69435;BMP180;56625;54.322;18.582;2023-08-08T12:35:21;99884.40;;;19.80
69435;BMP180;56625;54.322;18.582;2023-08-08T12:37:49;99877.20;;;19.90
69435;BMP180;56625;54.322;18.582;2023-08-08T12:40:18;99868.80;;;19.90
69435;BMP180;56625;54.322;18.582;2023-08-08T12:42:46;99867.40;;;20.00
69435;BMP180;56625;54.322;18.582;2023-08-08T12:45:16;99866.40;;;20.20
69435;BMP180;56625;54.322;18.582;2023-08-08T12:47:45;99872.40;;;20.40
69435;BMP180;56625;54.322;18.582;2023-08-08T12:50:13;99876.20;;;20.40
69435;BMP180;56625;54.322;18.582;2023-08-08T12:52:42;99867.80;;;20.38
69435;BMP180;56625;54.322;18.582;2023-08-08T12:55:10;99873.20;;;20.10
69435;BMP180;56625;54.322;18.582;2023-08-08T12:57:39;99867.20;;;20.30
69435;BMP180;56625;54.322;18.582;2023-08-08T13:00:09;99885.80;;;20.20
69435;BMP180;56625;54.322;18.582;2023-08-08T13:02:38;99884.60;;;20.20
69435;BMP180;56625;54.322;18.582;2023-08-08T13:05:07;99877.80;;;20.20
69435;BMP180;56625;54.322;18.582;2023-08-08T13:07:35;99885.00;;;20.20
69435;BMP180;56625;54.322;18.582;2023-08-08T13:10:04;99884.40;;;19.96
69435;BMP180;56625;54.322;18.582;2023-08-08T13:12:35;99876.20;;;19.80
69435;BMP180;56625;54.322;18.582;2023-08-08T13:15:04;99883.60;;;19.60
69435;BMP180;56625;54.322;18.582;2023-08-08T13:17:34;99890.20;;;19.60
69435;BMP180;56625;54.322;18.582;2023-08-08T13:20:04;99897.20;;;19.70
69435;BMP180;56625;54.322;18.582;2023-08-08T13:22:32;99893.80;;;19.70
69435;BMP180;56625;54.322;18.582;2023-08-08T13:25:01;99893.60;;;19.88
69435;BMP180;56625;54.322;18.582;2023-08-08T13:27:29;99898.20;;;20.00
69435;BMP180;56625;54.322;18.582;2023-08-08T13:29:57;99896.40;;;20.22
69435;BMP180;56625;54.322;18.582;2023-08-08T13:32:25;99898.00;;;20.40
69435;BMP180;56625;54.322;18.582;2023-08-08T13:34:53;99918.00;;;20.48
69435;BMP180;56625;54.322;18.582;2023-08-08T13:37:21;99921.80;;;20.20
69435;BMP180;56625;54.322;18.582;2023-08-08T13:39:48;99918.80;;;20.10
69435;BMP180;56625;54.322;18.582;2023-08-08T13:42:17;99925.00;;;20.20
69435;BMP180;56625;54.322;18.582;2023-08-08T13:44:44;99927.00;;;20.28
69435;BMP180;56625;54.322;18.582;2023-08-08T13:47:12;99921.00;;;20.30
69435;BMP180;56625;54.322;18.582;2023-08-08T13:49:40;99923.80;;;20.20
69435;BMP180;56625;54.322;18.582;2023-08-08T13:52:09;99926.40;;;20.10
69435;BMP180;56625;54.322;18.582;2023-08-08T13:54:37;99931.20;;;20.20
69435;BMP180;56625;54.322;18.582;2023-08-08T13:57:05;99940.60;;;20.24
69435;BMP180;56625;54.322;18.582;2023-08-08T13:59:33;99943.60;;;20.12
69435;BMP180;56625;54.322;18.582;2023-08-08T14:02:01;99932.40;;;19.90
69435;BMP180;56625;54.322;18.582;2023-08-08T14:04:30;99938.60;;;19.90
69435;BMP180;56625;54.322;18.582;2023-08-08T14:06:58;99932.40;;;20.06
69435;BMP180;56625;54.322;18.582;2023-08-08T14:09:26;99936.20;;;20.10